sensor_id;sensor_type;location;lat;lon;timestamp;temperature;humidity
20372;DHT22;63562;30.520;-97.766;2022-10-15T00:00:48;27.20;99.90
20372;DHT22;63562;30.520;-97.766;2022-10-15T00:03:30;27.20;99.90
20372;DHT22;63562;30.520;-97.766;2022-10-15T00:06:21;27.30;99.90
20372;DHT22;63562;30.520;-97.766;2022-10-15T00:08:59;27.30;99.90
20372;DHT22;63562;30.520;-97.766;2022-10-15T00:11:54;27.20;99.90
20372;DHT22;63562;30.520;-97.766;2022-10-15T00:14:53;27.10;99.90
20372;DHT22;63562;30.520;-97.766;2022-10-15T00:17:54;27.10;99.90
20372;DHT22;63562;30.520;-97.766;2022-10-15T00:20:29;27.10;99.90
20372;DHT22;63562;30.520;-97.766;2022-10-15T00:23:13;27.00;99.90
20372;DHT22;63562;30.520;-97.766;2022-10-15T00:26:08;27.00;99.90
20372;DHT22;63562;30.520;-97.766;2022-10-15T00:28:59;26.90;99.90
20372;DHT22;63562;30.520;-97.766;2022-10-15T00:32:22;26.90;99.90
20372;DHT22;63562;30.520;-97.766;2022-10-15T00:35:10;26.80;99.90
20372;DHT22;63562;30.520;-97.766;2022-10-15T00:37:39;26.80;99.90
20372;DHT22;63562;30.520;-97.766;2022-10-15T00:40:22;26.70;99.90
20372;DHT22;63562;30.520;-97.766;2022-10-15T00:42:57;26.70;99.90
20372;DHT22;63562;30.520;-97.766;2022-10-15T00:45:32;26.70;99.90
20372;DHT22;63562;30.520;-97.766;2022-10-15T00:51:41;26.60;99.90
20372;DHT22;63562;30.520;-97.766;2022-10-15T00:54:26;26.50;99.90
20372;DHT22;63562;30.520;-97.766;2022-10-15T00:57:25;26.40;99.90
20372;DHT22;63562;30.520;-97.766;2022-10-15T01:00:29;26.40;99.90
20372;DHT22;63562;30.520;-97.766;2022-10-15T01:03:25;26.40;99.90
20372;DHT22;63562;30.520;-97.766;2022-10-15T01:06:59;26.30;99.90
20372;DHT22;63562;30.520;-97.766;2022-10-15T01:10:19;26.30;99.90
20372;DHT22;63562;30.520;-97.766;2022-10-15T01:13:08;26.30;99.90
20372;DHT22;63562;30.520;-97.766;2022-10-15T01:15:56;26.20;99.90
20372;DHT22;63562;30.520;-97.766;2022-10-15T01:18:49;26.20;99.90
20372;DHT22;63562;30.520;-97.766;2022-10-15T01:21:39;26.10;99.90
20372;DHT22;63562;30.520;-97.766;2022-10-15T01:30:26;26.10;99.90
20372;DHT22;63562;30.520;-97.766;2022-10-15T01:35:51;26.00;99.90
20372;DHT22;63562;30.520;-97.766;2022-10-15T01:45:44;25.90;99.90
20372;DHT22;63562;30.520;-97.766;2022-10-15T01:48:27;25.90;99.90
20372;DHT22;63562;30.520;-97.766;2022-10-15T01:51:04;25.90;99.90
20372;DHT22;63562;30.520;-97.766;2022-10-15T02:14:38;25.50;99.90
20372;DHT22;63562;30.520;-97.766;2022-10-15T02:17:14;25.40;99.90
20372;DHT22;63562;30.520;-97.766;2022-10-15T02:20:05;25.50;99.90
20372;DHT22;63562;30.520;-97.766;2022-10-15T02:22:46;25.40;99.90
20372;DHT22;63562;30.520;-97.766;2022-10-15T02:25:21;25.30;99.90
20372;DHT22;63562;30.520;-97.766;2022-10-15T02:27:56;25.30;99.90
20372;DHT22;63562;30.520;-97.766;2022-10-15T02:30:28;25.30;99.90
20372;DHT22;63562;30.520;-97.766;2022-10-15T02:33:00;25.30;99.90
20372;DHT22;63562;30.520;-97.766;2022-10-15T02:35:31;25.30;99.90
20372;DHT22;63562;30.520;-97.766;2022-10-15T02:38:10;25.30;99.90
20372;DHT22;63562;30.520;-97.766;2022-10-15T02:40:49;25.30;99.90
20372;DHT22;63562;30.520;-97.766;2022-10-15T02:43:21;25.40;99.90
20372;DHT22;63562;30.520;-97.766;2022-10-15T02:45:54;25.30;99.90
20372;DHT22;63562;30.520;-97.766;2022-10-15T02:48:24;25.30;99.90
20372;DHT22;63562;30.520;-97.766;2022-10-15T02:50:55;25.30;99.90
20372;DHT22;63562;30.520;-97.766;2022-10-15T02:53:27;25.30;99.90
20372;DHT22;63562;30.520;-97.766;2022-10-15T02:55:56;25.30;99.90
20372;DHT22;63562;30.520;-97.766;2022-10-15T02:58:27;25.30;99.90
20372;DHT22;63562;30.520;-97.766;2022-10-15T03:01:00;25.40;99.90
20372;DHT22;63562;30.520;-97.766;2022-10-15T03:03:30;25.40;99.90
20372;DHT22;63562;30.520;-97.766;2022-10-15T03:06:01;25.40;99.90
20372;DHT22;63562;30.520;-97.766;2022-10-15T03:08:32;25.30;99.90
20372;DHT22;63562;30.520;-97.766;2022-10-15T03:11:05;25.20;99.90
20372;DHT22;63562;30.520;-97.766;2022-10-15T03:13:38;25.10;99.90
20372;DHT22;63562;30.520;-97.766;2022-10-15T03:16:10;25.20;99.90
20372;DHT22;63562;30.520;-97.766;2022-10-15T03:18:45;25.20;99.90
20372;DHT22;63562;30.520;-97.766;2022-10-15T03:21:16;25.20;99.90
20372;DHT22;63562;30.520;-97.766;2022-10-15T03:23:47;25.10;99.90
20372;DHT22;63562;30.520;-97.766;2022-10-15T03:26:22;25.10;99.90
20372;DHT22;63562;30.520;-97.766;2022-10-15T03:28:51;25.10;99.90
20372;DHT22;63562;30.520;-97.766;2022-10-15T03:31:35;25.00;99.90
20372;DHT22;63562;30.520;-97.766;2022-10-15T03:34:06;25.00;99.90
20372;DHT22;63562;30.520;-97.766;2022-10-15T03:36:36;25.00;99.90
20372;DHT22;63562;30.520;-97.766;2022-10-15T03:39:12;25.00;99.90
20372;DHT22;63562;30.520;-97.766;2022-10-15T03:41:44;24.90;99.90
20372;DHT22;63562;30.520;-97.766;2022-10-15T03:44:22;24.90;99.90
20372;DHT22;63562;30.520;-97.766;2022-10-15T03:47:03;24.90;99.90
20372;DHT22;63562;30.520;-97.766;2022-10-15T03:49:43;24.90;99.90
20372;DHT22;63562;30.520;-97.766;2022-10-15T03:52:21;24.90;99.90
20372;DHT22;63562;30.520;-97.766;2022-10-15T03:54:55;24.80;99.90
20372;DHT22;63562;30.520;-97.766;2022-10-15T03:57:25;24.80;99.90
20372;DHT22;63562;30.520;-97.766;2022-10-15T04:00:01;24.70;99.90
20372;DHT22;63562;30.520;-97.766;2022-10-15T04:02:38;24.70;99.90
20372;DHT22;63562;30.520;-97.766;2022-10-15T04:05:19;24.80;99.90
20372;DHT22;63562;30.520;-97.766;2022-10-15T04:07:55;24.70;99.90
20372;DHT22;63562;30.520;-97.766;2022-10-15T04:10:26;24.60;99.90
20372;DHT22;63562;30.520;-97.766;2022-10-15T04:13:01;24.50;99.90
20372;DHT22;63562;30.520;-97.766;2022-10-15T04:15:33;24.60;99.90
20372;DHT22;63562;30.520;-97.766;2022-10-15T04:18:08;24.60;99.90
20372;DHT22;63562;30.520;-97.766;2022-10-15T04:20:39;24.50;99.90
20372;DHT22;63562;30.520;-97.766;2022-10-15T04:23:16;24.50;99.90
20372;DHT22;63562;30.520;-97.766;2022-10-15T04:26:06;24.40;99.90
20372;DHT22;63562;30.520;-97.766;2022-10-15T04:28:37;24.50;99.90
20372;DHT22;63562;30.520;-97.766;2022-10-15T04:31:10;24.40;99.90
20372;DHT22;63562;30.520;-97.766;2022-10-15T04:33:41;24.50;99.90
20372;DHT22;63562;30.520;-97.766;2022-10-15T04:36:13;24.50;99.90
20372;DHT22;63562;30.520;-97.766;2022-10-15T04:38:52;24.50;99.90
20372;DHT22;63562;30.520;-97.766;2022-10-15T04:41:40;24.40;99.90
20372;DHT22;63562;30.520;-97.766;2022-10-15T04:44:21;24.30;99.90
20372;DHT22;63562;30.520;-97.766;2022-10-15T04:46:55;24.30;99.90
20372;DHT22;63562;30.520;-97.766;2022-10-15T04:49:46;24.20;99.90
20372;DHT22;63562;30.520;-97.766;2022-10-15T04:52:35;24.30;99.90
20372;DHT22;63562;30.520;-97.766;2022-10-15T04:55:10;24.20;99.90
20372;DHT22;63562;30.520;-97.766;2022-10-15T04:57:42;24.20;99.90
20372;DHT22;63562;30.520;-97.766;2022-10-15T05:00:12;24.40;99.90
20372;DHT22;63562;30.520;-97.766;2022-10-15T05:03:05;24.30;99.90
20372;DHT22;63562;30.520;-97.766;2022-10-15T05:05:45;24.40;99.90
20372;DHT22;63562;30.520;-97.766;2022-10-15T05:08:16;24.30;99.90
20372;DHT22;63562;30.520;-97.766;2022-10-15T05:11:07;24.20;99.90
20372;DHT22;63562;30.520;-97.766;2022-10-15T05:13:38;24.10;99.90
20372;DHT22;63562;30.520;-97.766;2022-10-15T05:18:45;24.10;99.90
20372;DHT22;63562;30.520;-97.766;2022-10-15T05:21:17;24.10;99.90
20372;DHT22;63562;30.520;-97.766;2022-10-15T05:23:52;24.10;99.90
20372;DHT22;63562;30.520;-97.766;2022-10-15T05:26:42;24.10;99.90
20372;DHT22;63562;30.520;-97.766;2022-10-15T05:29:16;24.10;99.90
20372;DHT22;63562;30.520;-97.766;2022-10-15T05:31:49;24.10;99.90
20372;DHT22;63562;30.520;-97.766;2022-10-15T05:34:26;24.10;99.90
20372;DHT22;63562;30.520;-97.766;2022-10-15T05:37:02;24.10;99.90
20372;DHT22;63562;30.520;-97.766;2022-10-15T05:39:34;24.10;99.90
20372;DHT22;63562;30.520;-97.766;2022-10-15T05:42:04;24.10;99.90
20372;DHT22;63562;30.520;-97.766;2022-10-15T05:44:42;24.10;99.90
20372;DHT22;63562;30.520;-97.766;2022-10-15T05:47:12;24.10;99.90
20372;DHT22;63562;30.520;-97.766;2022-10-15T05:49:41;24.00;99.90
20372;DHT22;63562;30.520;-97.766;2022-10-15T05:52:27;23.90;99.90
20372;DHT22;63562;30.520;-97.766;2022-10-15T05:55:12;24.00;99.90
20372;DHT22;63562;30.520;-97.766;2022-10-15T05:57:41;24.00;99.90
20372;DHT22;63562;30.520;-97.766;2022-10-15T06:00:11;23.90;99.90
20372;DHT22;63562;30.520;-97.766;2022-10-15T06:02:41;23.90;99.90
20372;DHT22;63562;30.520;-97.766;2022-10-15T06:05:12;23.90;99.90
20372;DHT22;63562;30.520;-97.766;2022-10-15T06:07:43;23.90;99.90
20372;DHT22;63562;30.520;-97.766;2022-10-15T06:10:14;23.90;99.90
20372;DHT22;63562;30.520;-97.766;2022-10-15T06:12:49;23.90;99.90
20372;DHT22;63562;30.520;-97.766;2022-10-15T06:15:19;23.90;99.90
20372;DHT22;63562;30.520;-97.766;2022-10-15T06:17:53;23.70;99.90
20372;DHT22;63562;30.520;-97.766;2022-10-15T06:20:23;23.80;99.90
20372;DHT22;63562;30.520;-97.766;2022-10-15T06:23:00;23.80;99.90
20372;DHT22;63562;30.520;-97.766;2022-10-15T06:25:35;23.70;99.90
20372;DHT22;63562;30.520;-97.766;2022-10-15T06:28:05;23.80;99.90
20372;DHT22;63562;30.520;-97.766;2022-10-15T06:30:43;23.70;99.90
20372;DHT22;63562;30.520;-97.766;2022-10-15T06:33:13;23.70;99.90
20372;DHT22;63562;30.520;-97.766;2022-10-15T06:35:46;23.60;99.90
20372;DHT22;63562;30.520;-97.766;2022-10-15T06:38:19;23.60;99.90
20372;DHT22;63562;30.520;-97.766;2022-10-15T06:40:50;23.50;99.90
20372;DHT22;63562;30.520;-97.766;2022-10-15T06:43:20;23.70;99.90
20372;DHT22;63562;30.520;-97.766;2022-10-15T06:45:50;23.60;99.90
20372;DHT22;63562;30.520;-97.766;2022-10-15T06:48:22;23.60;99.90
20372;DHT22;63562;30.520;-97.766;2022-10-15T06:50:53;23.60;99.90
20372;DHT22;63562;30.520;-97.766;2022-10-15T06:53:25;23.60;99.90
20372;DHT22;63562;30.520;-97.766;2022-10-15T06:56:01;23.70;99.90
20372;DHT22;63562;30.520;-97.766;2022-10-15T06:58:40;23.60;99.90
20372;DHT22;63562;30.520;-97.766;2022-10-15T07:01:16;23.70;99.90
20372;DHT22;63562;30.520;-97.766;2022-10-15T07:03:50;23.60;99.90
20372;DHT22;63562;30.520;-97.766;2022-10-15T07:06:19;23.60;99.90
20372;DHT22;63562;30.520;-97.766;2022-10-15T07:08:52;23.60;99.90
20372;DHT22;63562;30.520;-97.766;2022-10-15T07:11:22;23.70;99.90
20372;DHT22;63562;30.520;-97.766;2022-10-15T07:13:53;23.70;99.90
20372;DHT22;63562;30.520;-97.766;2022-10-15T07:16:27;23.70;99.90
20372;DHT22;63562;30.520;-97.766;2022-10-15T07:18:57;23.70;99.90
20372;DHT22;63562;30.520;-97.766;2022-10-15T07:21:28;23.70;99.90
20372;DHT22;63562;30.520;-97.766;2022-10-15T07:23:59;23.60;99.90
20372;DHT22;63562;30.520;-97.766;2022-10-15T07:26:33;23.50;99.90
20372;DHT22;63562;30.520;-97.766;2022-10-15T07:29:02;23.60;99.90
20372;DHT22;63562;30.520;-97.766;2022-10-15T07:31:33;23.70;99.90
20372;DHT22;63562;30.520;-97.766;2022-10-15T07:34:03;23.70;99.90
20372;DHT22;63562;30.520;-97.766;2022-10-15T07:36:34;23.60;99.90
20372;DHT22;63562;30.520;-97.766;2022-10-15T07:39:06;23.70;99.90
20372;DHT22;63562;30.520;-97.766;2022-10-15T07:41:38;23.70;99.90
20372;DHT22;63562;30.520;-97.766;2022-10-15T07:44:08;23.70;99.90
20372;DHT22;63562;30.520;-97.766;2022-10-15T07:46:37;23.70;99.90
20372;DHT22;63562;30.520;-97.766;2022-10-15T07:49:10;23.60;99.90
20372;DHT22;63562;30.520;-97.766;2022-10-15T07:51:41;23.60;99.90
20372;DHT22;63562;30.520;-97.766;2022-10-15T07:54:14;23.60;99.90
20372;DHT22;63562;30.520;-97.766;2022-10-15T07:56:45;23.50;99.90
20372;DHT22;63562;30.520;-97.766;2022-10-15T07:59:15;23.60;99.90
20372;DHT22;63562;30.520;-97.766;2022-10-15T08:01:48;23.60;99.90
20372;DHT22;63562;30.520;-97.766;2022-10-15T08:04:19;23.60;99.90
20372;DHT22;63562;30.520;-97.766;2022-10-15T08:06:51;23.60;99.90
20372;DHT22;63562;30.520;-97.766;2022-10-15T08:09:22;23.60;99.90
20372;DHT22;63562;30.520;-97.766;2022-10-15T08:11:52;23.60;99.90
20372;DHT22;63562;30.520;-97.766;2022-10-15T08:14:22;23.60;99.90
20372;DHT22;63562;30.520;-97.766;2022-10-15T08:16:54;23.60;99.90
20372;DHT22;63562;30.520;-97.766;2022-10-15T08:19:26;23.60;99.90
20372;DHT22;63562;30.520;-97.766;2022-10-15T08:21:56;23.60;99.90
20372;DHT22;63562;30.520;-97.766;2022-10-15T08:24:26;23.50;99.90
20372;DHT22;63562;30.520;-97.766;2022-10-15T08:26:59;23.50;99.90
20372;DHT22;63562;30.520;-97.766;2022-10-15T08:29:29;23.60;99.90
20372;DHT22;63562;30.520;-97.766;2022-10-15T08:32:02;23.70;99.90
20372;DHT22;63562;30.520;-97.766;2022-10-15T08:34:32;23.60;99.90
20372;DHT22;63562;30.520;-97.766;2022-10-15T08:37:02;23.70;99.90
20372;DHT22;63562;30.520;-97.766;2022-10-15T08:39:34;23.60;99.90
20372;DHT22;63562;30.520;-97.766;2022-10-15T08:42:16;23.70;99.90
20372;DHT22;63562;30.520;-97.766;2022-10-15T08:44:54;23.70;99.90
20372;DHT22;63562;30.520;-97.766;2022-10-15T08:47:42;23.60;99.90
20372;DHT22;63562;30.520;-97.766;2022-10-15T08:50:23;23.60;99.90
20372;DHT22;63562;30.520;-97.766;2022-10-15T08:52:59;23.50;99.90
20372;DHT22;63562;30.520;-97.766;2022-10-15T08:55:37;23.50;99.90
20372;DHT22;63562;30.520;-97.766;2022-10-15T08:58:21;23.60;99.90
20372;DHT22;63562;30.520;-97.766;2022-10-15T09:01:20;23.60;99.90
20372;DHT22;63562;30.520;-97.766;2022-10-15T09:06:36;23.60;99.90
20372;DHT22;63562;30.520;-97.766;2022-10-15T09:09:24;23.60;99.90
20372;DHT22;63562;30.520;-97.766;2022-10-15T09:14:43;23.50;99.90
20372;DHT22;63562;30.520;-97.766;2022-10-15T09:17:21;23.60;99.90
20372;DHT22;63562;30.520;-97.766;2022-10-15T09:19:56;23.60;99.90
20372;DHT22;63562;30.520;-97.766;2022-10-15T09:22:29;23.60;99.90
20372;DHT22;63562;30.520;-97.766;2022-10-15T09:25:14;23.50;99.90
20372;DHT22;63562;30.520;-97.766;2022-10-15T09:27:48;23.50;99.90
20372;DHT22;63562;30.520;-97.766;2022-10-15T09:30:41;23.50;99.90
20372;DHT22;63562;30.520;-97.766;2022-10-15T09:33:49;23.50;99.90
20372;DHT22;63562;30.520;-97.766;2022-10-15T09:36:46;23.50;99.90
20372;DHT22;63562;30.520;-97.766;2022-10-15T09:39:37;23.50;99.90
20372;DHT22;63562;30.520;-97.766;2022-10-15T09:45:24;23.50;99.90
20372;DHT22;63562;30.520;-97.766;2022-10-15T09:47:58;23.50;99.90
20372;DHT22;63562;30.520;-97.766;2022-10-15T09:54:17;23.60;99.90
20372;DHT22;63562;30.520;-97.766;2022-10-15T09:56:55;23.50;99.90
20372;DHT22;63562;30.520;-97.766;2022-10-15T09:59:28;23.50;99.90
20372;DHT22;63562;30.520;-97.766;2022-10-15T10:02:18;23.50;99.90
20372;DHT22;63562;30.520;-97.766;2022-10-15T10:04:55;23.50;99.90
20372;DHT22;63562;30.520;-97.766;2022-10-15T10:07:36;23.50;99.90
20372;DHT22;63562;30.520;-97.766;2022-10-15T10:10:27;23.50;99.90
20372;DHT22;63562;30.520;-97.766;2022-10-15T10:12:58;23.40;99.90
20372;DHT22;63562;30.520;-97.766;2022-10-15T10:15:40;23.40;99.90
20372;DHT22;63562;30.520;-97.766;2022-10-15T10:18:23;23.40;99.90
20372;DHT22;63562;30.520;-97.766;2022-10-15T10:20:57;23.40;99.90
20372;DHT22;63562;30.520;-97.766;2022-10-15T10:26:08;23.40;99.90
20372;DHT22;63562;30.520;-97.766;2022-10-15T10:29:05;23.40;99.90
20372;DHT22;63562;30.520;-97.766;2022-10-15T10:31:49;23.40;99.90
20372;DHT22;63562;30.520;-97.766;2022-10-15T10:34:31;23.30;99.90
20372;DHT22;63562;30.520;-97.766;2022-10-15T10:37:03;23.40;99.90
20372;DHT22;63562;30.520;-97.766;2022-10-15T10:39:37;23.30;99.90
20372;DHT22;63562;30.520;-97.766;2022-10-15T10:44:52;23.30;99.90
20372;DHT22;63562;30.520;-97.766;2022-10-15T10:47:23;23.30;99.90
20372;DHT22;63562;30.520;-97.766;2022-10-15T10:49:57;23.40;99.90
20372;DHT22;63562;30.520;-97.766;2022-10-15T10:52:31;23.40;99.90
20372;DHT22;63562;30.520;-97.766;2022-10-15T10:57:55;23.30;99.90
20372;DHT22;63562;30.520;-97.766;2022-10-15T11:00:37;23.30;99.90
20372;DHT22;63562;30.520;-97.766;2022-10-15T11:03:36;23.20;99.90
20372;DHT22;63562;30.520;-97.766;2022-10-15T11:06:22;23.20;99.90
20372;DHT22;63562;30.520;-97.766;2022-10-15T11:14:56;23.20;99.90
20372;DHT22;63562;30.520;-97.766;2022-10-15T11:20:41;23.30;99.90
20372;DHT22;63562;30.520;-97.766;2022-10-15T11:26:52;23.30;99.90
20372;DHT22;63562;30.520;-97.766;2022-10-15T11:29:55;23.30;99.90
20372;DHT22;63562;30.520;-97.766;2022-10-15T11:35:42;23.30;99.90
20372;DHT22;63562;30.520;-97.766;2022-10-15T11:38:48;23.30;99.90
20372;DHT22;63562;30.520;-97.766;2022-10-15T11:41:58;23.30;99.90
20372;DHT22;63562;30.520;-97.766;2022-10-15T11:50:16;23.20;99.90
20372;DHT22;63562;30.520;-97.766;2022-10-15T11:56:04;23.30;99.90
20372;DHT22;63562;30.520;-97.766;2022-10-15T11:58:44;23.30;99.90
20372;DHT22;63562;30.520;-97.766;2022-10-15T12:01:42;23.30;99.90
20372;DHT22;63562;30.520;-97.766;2022-10-15T12:04:50;23.30;99.90
20372;DHT22;63562;30.520;-97.766;2022-10-15T12:07:27;23.30;99.90
20372;DHT22;63562;30.520;-97.766;2022-10-15T12:10:25;23.40;99.90
20372;DHT22;63562;30.520;-97.766;2022-10-15T12:13:14;23.30;99.90
20372;DHT22;63562;30.520;-97.766;2022-10-15T12:16:25;23.30;99.90
20372;DHT22;63562;30.520;-97.766;2022-10-15T12:18:59;23.20;99.90
20372;DHT22;63562;30.520;-97.766;2022-10-15T12:21:59;23.30;99.90
20372;DHT22;63562;30.520;-97.766;2022-10-15T12:27:25;23.30;99.90
20372;DHT22;63562;30.520;-97.766;2022-10-15T12:32:45;23.30;99.90
20372;DHT22;63562;30.520;-97.766;2022-10-15T12:35:24;23.30;99.90
20372;DHT22;63562;30.520;-97.766;2022-10-15T12:38:17;23.30;99.90
20372;DHT22;63562;30.520;-97.766;2022-10-15T12:40:59;23.30;99.90
20372;DHT22;63562;30.520;-97.766;2022-10-15T12:43:35;23.30;99.90
20372;DHT22;63562;30.520;-97.766;2022-10-15T12:57:02;23.30;99.90
20372;DHT22;63562;30.520;-97.766;2022-10-15T12:59:57;23.30;99.90
20372;DHT22;63562;30.520;-97.766;2022-10-15T13:02:44;23.30;99.90
20372;DHT22;63562;30.520;-97.766;2022-10-15T13:05:29;23.30;99.90
20372;DHT22;63562;30.520;-97.766;2022-10-15T13:08:03;23.30;99.90
20372;DHT22;63562;30.520;-97.766;2022-10-15T13:10:55;23.30;99.90
20372;DHT22;63562;30.520;-97.766;2022-10-15T13:13:28;23.40;99.90
20372;DHT22;63562;30.520;-97.766;2022-10-15T13:16:07;23.30;99.90
20372;DHT22;63562;30.520;-97.766;2022-10-15T13:18:39;23.30;99.90
20372;DHT22;63562;30.520;-97.766;2022-10-15T13:21:10;23.30;99.90
20372;DHT22;63562;30.520;-97.766;2022-10-15T13:23:52;23.30;99.90
20372;DHT22;63562;30.520;-97.766;2022-10-15T13:26:26;23.40;99.90
20372;DHT22;63562;30.520;-97.766;2022-10-15T13:28:56;23.50;99.90
20372;DHT22;63562;30.520;-97.766;2022-10-15T13:31:30;23.40;99.90
20372;DHT22;63562;30.520;-97.766;2022-10-15T13:36:44;23.50;99.90
20372;DHT22;63562;30.520;-97.766;2022-10-15T13:39:34;23.50;99.90
20372;DHT22;63562;30.520;-97.766;2022-10-15T13:44:37;23.50;99.90
20372;DHT22;63562;30.520;-97.766;2022-10-15T13:47:28;23.50;99.90
20372;DHT22;63562;30.520;-97.766;2022-10-15T13:50:13;23.60;99.90
20372;DHT22;63562;30.520;-97.766;2022-10-15T13:55:33;23.60;99.90
20372;DHT22;63562;30.520;-97.766;2022-10-15T13:58:28;23.80;99.90
20372;DHT22;63562;30.520;-97.766;2022-10-15T14:01:12;23.70;99.90
20372;DHT22;63562;30.520;-97.766;2022-10-15T14:03:51;23.70;99.90
20372;DHT22;63562;30.520;-97.766;2022-10-15T14:06:27;23.80;99.90
20372;DHT22;63562;30.520;-97.766;2022-10-15T14:09:17;23.80;99.90
20372;DHT22;63562;30.520;-97.766;2022-10-15T14:11:48;23.90;99.90
20372;DHT22;63562;30.520;-97.766;2022-10-15T14:20:00;23.90;99.90
20372;DHT22;63562;30.520;-97.766;2022-10-15T14:22:52;24.00;99.90
20372;DHT22;63562;30.520;-97.766;2022-10-15T14:25:24;24.00;99.90
20372;DHT22;63562;30.520;-97.766;2022-10-15T14:27:54;23.90;99.90
20372;DHT22;63562;30.520;-97.766;2022-10-15T14:30:30;23.90;99.90
20372;DHT22;63562;30.520;-97.766;2022-10-15T14:33:01;23.90;99.90
20372;DHT22;63562;30.520;-97.766;2022-10-15T14:35:35;24.00;99.90
20372;DHT22;63562;30.520;-97.766;2022-10-15T14:38:15;24.00;99.90
20372;DHT22;63562;30.520;-97.766;2022-10-15T14:41:04;24.00;99.90
20372;DHT22;63562;30.520;-97.766;2022-10-15T14:43:37;24.00;99.90
20372;DHT22;63562;30.520;-97.766;2022-10-15T14:46:14;24.10;99.90
20372;DHT22;63562;30.520;-97.766;2022-10-15T14:48:45;24.10;99.90
20372;DHT22;63562;30.520;-97.766;2022-10-15T14:51:25;24.10;99.90
20372;DHT22;63562;30.520;-97.766;2022-10-15T14:53:55;24.10;99.90
20372;DHT22;63562;30.520;-97.766;2022-10-15T14:56:31;24.20;99.90
20372;DHT22;63562;30.520;-97.766;2022-10-15T14:59:04;24.30;99.90
20372;DHT22;63562;30.520;-97.766;2022-10-15T15:01:50;24.40;99.90
20372;DHT22;63562;30.520;-97.766;2022-10-15T15:04:39;24.40;99.90
20372;DHT22;63562;30.520;-97.766;2022-10-15T15:07:15;24.50;99.90
20372;DHT22;63562;30.520;-97.766;2022-10-15T15:09:47;24.50;99.90
20372;DHT22;63562;30.520;-97.766;2022-10-15T15:12:26;24.50;99.90
20372;DHT22;63562;30.520;-97.766;2022-10-15T15:15:00;24.50;99.90
20372;DHT22;63562;30.520;-97.766;2022-10-15T15:17:30;24.50;99.90
20372;DHT22;63562;30.520;-97.766;2022-10-15T15:20:01;24.60;99.90
20372;DHT22;63562;30.520;-97.766;2022-10-15T15:22:33;24.60;99.90
20372;DHT22;63562;30.520;-97.766;2022-10-15T15:25:17;24.70;99.90
20372;DHT22;63562;30.520;-97.766;2022-10-15T15:27:48;24.80;99.90
20372;DHT22;63562;30.520;-97.766;2022-10-15T15:30:23;24.90;99.90
20372;DHT22;63562;30.520;-97.766;2022-10-15T15:32:57;25.10;99.90
20372;DHT22;63562;30.520;-97.766;2022-10-15T15:35:38;25.10;99.90
20372;DHT22;63562;30.520;-97.766;2022-10-15T15:38:13;25.20;99.90
20372;DHT22;63562;30.520;-97.766;2022-10-15T15:40:44;25.20;99.90
20372;DHT22;63562;30.520;-97.766;2022-10-15T15:43:17;25.20;99.90
20372;DHT22;63562;30.520;-97.766;2022-10-15T15:45:48;25.30;99.90
20372;DHT22;63562;30.520;-97.766;2022-10-15T15:48:20;25.30;99.90
20372;DHT22;63562;30.520;-97.766;2022-10-15T15:50:50;25.30;99.90
20372;DHT22;63562;30.520;-97.766;2022-10-15T15:53:21;25.30;99.90
20372;DHT22;63562;30.520;-97.766;2022-10-15T15:55:55;25.30;99.90
20372;DHT22;63562;30.520;-97.766;2022-10-15T15:58:24;25.30;99.90
20372;DHT22;63562;30.520;-97.766;2022-10-15T16:00:54;25.30;99.90
20372;DHT22;63562;30.520;-97.766;2022-10-15T16:03:25;25.30;99.90
20372;DHT22;63562;30.520;-97.766;2022-10-15T16:05:55;25.30;99.90
20372;DHT22;63562;30.520;-97.766;2022-10-15T16:08:26;25.30;99.90
20372;DHT22;63562;30.520;-97.766;2022-10-15T16:11:04;25.40;99.90
20372;DHT22;63562;30.520;-97.766;2022-10-15T16:13:35;25.40;99.90
20372;DHT22;63562;30.520;-97.766;2022-10-15T16:16:05;25.40;99.90
20372;DHT22;63562;30.520;-97.766;2022-10-15T16:18:36;25.50;99.90
20372;DHT22;63562;30.520;-97.766;2022-10-15T16:21:07;25.50;99.90
20372;DHT22;63562;30.520;-97.766;2022-10-15T16:23:37;25.50;99.90
20372;DHT22;63562;30.520;-97.766;2022-10-15T16:26:10;25.60;99.90
20372;DHT22;63562;30.520;-97.766;2022-10-15T16:28:41;25.60;99.90
20372;DHT22;63562;30.520;-97.766;2022-10-15T16:31:19;25.70;99.90
20372;DHT22;63562;30.520;-97.766;2022-10-15T16:33:57;25.70;99.90
20372;DHT22;63562;30.520;-97.766;2022-10-15T16:36:26;25.70;99.90
20372;DHT22;63562;30.520;-97.766;2022-10-15T16:38:57;25.70;99.90
20372;DHT22;63562;30.520;-97.766;2022-10-15T16:41:28;25.70;99.90
20372;DHT22;63562;30.520;-97.766;2022-10-15T16:43:58;25.70;99.90
20372;DHT22;63562;30.520;-97.766;2022-10-15T16:46:28;25.70;99.90
20372;DHT22;63562;30.520;-97.766;2022-10-15T16:48:59;25.70;99.90
20372;DHT22;63562;30.520;-97.766;2022-10-15T16:51:31;25.80;99.90
20372;DHT22;63562;30.520;-97.766;2022-10-15T16:54:13;25.90;99.90
20372;DHT22;63562;30.520;-97.766;2022-10-15T16:56:44;25.90;99.90
20372;DHT22;63562;30.520;-97.766;2022-10-15T16:59:22;26.00;99.90
20372;DHT22;63562;30.520;-97.766;2022-10-15T17:01:57;26.10;99.90
20372;DHT22;63562;30.520;-97.766;2022-10-15T17:04:29;26.10;99.90
20372;DHT22;63562;30.520;-97.766;2022-10-15T17:07:00;26.20;99.90
20372;DHT22;63562;30.520;-97.766;2022-10-15T17:09:34;26.20;99.90
20372;DHT22;63562;30.520;-97.766;2022-10-15T17:12:07;26.20;99.90
20372;DHT22;63562;30.520;-97.766;2022-10-15T17:14:40;26.20;99.90
20372;DHT22;63562;30.520;-97.766;2022-10-15T17:17:10;26.30;99.90
20372;DHT22;63562;30.520;-97.766;2022-10-15T17:19:40;26.30;99.90
20372;DHT22;63562;30.520;-97.766;2022-10-15T17:22:13;26.40;99.90
20372;DHT22;63562;30.520;-97.766;2022-10-15T17:24:47;26.50;99.90
20372;DHT22;63562;30.520;-97.766;2022-10-15T17:27:17;26.40;99.90
20372;DHT22;63562;30.520;-97.766;2022-10-15T17:29:47;26.50;99.90
20372;DHT22;63562;30.520;-97.766;2022-10-15T17:32:18;26.60;99.90
20372;DHT22;63562;30.520;-97.766;2022-10-15T17:34:50;26.70;99.90
20372;DHT22;63562;30.520;-97.766;2022-10-15T17:37:22;26.80;99.90
20372;DHT22;63562;30.520;-97.766;2022-10-15T17:39:53;26.80;99.90
20372;DHT22;63562;30.520;-97.766;2022-10-15T17:42:26;26.60;99.90
20372;DHT22;63562;30.520;-97.766;2022-10-15T17:44:57;26.80;99.90
20372;DHT22;63562;30.520;-97.766;2022-10-15T17:47:28;26.80;99.90
20372;DHT22;63562;30.520;-97.766;2022-10-15T17:50:01;26.90;99.90
20372;DHT22;63562;30.520;-97.766;2022-10-15T17:52:34;27.00;99.90
20372;DHT22;63562;30.520;-97.766;2022-10-15T17:55:04;27.00;99.90
20372;DHT22;63562;30.520;-97.766;2022-10-15T17:57:35;27.10;99.90
20372;DHT22;63562;30.520;-97.766;2022-10-15T18:00:07;27.00;99.90
20372;DHT22;63562;30.520;-97.766;2022-10-15T18:02:40;27.10;99.90